sensor_id;sensor_type;location;lat;lon;timestamp;pressure;altitude;pressure_sealevel;temperature;humidity
35435;BME280;21556;55.782;37.528;2023-12-20T00:01:35;97929.69;;;7.01;100.00
35435;BME280;21556;55.782;37.528;2023-12-20T00:04:02;97928.75;;;6.90;100.00
35435;BME280;21556;55.782;37.528;2023-12-20T00:06:31;97922.63;;;6.72;100.00
35435;BME280;21556;55.782;37.528;2023-12-20T00:08:57;97929.63;;;6.80;100.00
35435;BME280;21556;55.782;37.528;2023-12-20T00:11:28;97918.78;;;5.92;100.00
35435;BME280;21556;55.782;37.528;2023-12-20T00:14:00;97920.00;;;6.63;100.00
35435;BME280;21556;55.782;37.528;2023-12-20T00:16:27;97936.38;;;6.38;100.00
35435;BME280;21556;55.782;37.528;2023-12-20T00:18:56;97940.84;;;6.65;100.00
35435;BME280;21556;55.782;37.528;2023-12-20T00:21:28;97944.22;;;6.42;100.00
35435;BME280;21556;55.782;37.528;2023-12-20T00:23:54;97943.44;;;6.68;100.00
35435;BME280;21556;55.782;37.528;2023-12-20T00:26:25;97939.94;;;6.55;100.00
35435;BME280;21556;55.782;37.528;2023-12-20T00:28:54;97942.56;;;6.60;100.00
35435;BME280;21556;55.782;37.528;2023-12-20T00:31:38;97932.13;;;6.55;100.00
35435;BME280;21556;55.782;37.528;2023-12-20T00:34:07;97940.03;;;6.80;100.00
35435;BME280;21556;55.782;37.528;2023-12-20T00:36:40;97937.41;;;6.72;100.00
35435;BME280;21556;55.782;37.528;2023-12-20T00:39:07;97943.31;;;6.39;100.00
35435;BME280;21556;55.782;37.528;2023-12-20T00:41:35;97952.91;;;6.46;100.00
35435;BME280;21556;55.782;37.528;2023-12-20T00:44:04;97949.53;;;6.67;100.00
35435;BME280;21556;55.782;37.528;2023-12-20T00:46:30;97954.75;;;6.65;100.00
35435;BME280;21556;55.782;37.528;2023-12-20T00:48:59;97947.00;;;6.79;100.00
35435;BME280;21556;55.782;37.528;2023-12-20T00:51:26;97946.84;;;6.48;100.00
35435;BME280;21556;55.782;37.528;2023-12-20T00:53:52;97946.88;;;6.50;100.00
35435;BME280;21556;55.782;37.528;2023-12-20T00:56:21;97940.03;;;6.77;100.00
35435;BME280;21556;55.782;37.528;2023-12-20T00:58:47;97940.69;;;6.34;100.00
35435;BME280;21556;55.782;37.528;2023-12-20T01:01:13;97936.47;;;6.58;100.00
35435;BME280;21556;55.782;37.528;2023-12-20T01:03:39;97934.84;;;6.87;100.00
35435;BME280;21556;55.782;37.528;2023-12-20T01:06:08;97927.81;;;6.62;100.00
35435;BME280;21556;55.782;37.528;2023-12-20T01:08:34;97918.31;;;6.82;100.00
35435;BME280;21556;55.782;37.528;2023-12-20T01:11:03;97917.34;;;6.57;100.00
35435;BME280;21556;55.782;37.528;2023-12-20T01:13:30;97918.19;;;6.48;100.00
35435;BME280;21556;55.782;37.528;2023-12-20T01:15:56;97906.94;;;6.59;100.00
35435;BME280;21556;55.782;37.528;2023-12-20T01:18:22;97908.72;;;6.61;100.00
35435;BME280;21556;55.782;37.528;2023-12-20T01:20:48;97913.03;;;6.61;100.00
35435;BME280;21556;55.782;37.528;2023-12-20T01:23:17;97901.72;;;6.56;100.00
35435;BME280;21556;55.782;37.528;2023-12-20T01:25:43;97914.59;;;6.28;100.00
35435;BME280;21556;55.782;37.528;2023-12-20T01:28:14;97908.72;;;6.75;100.00
35435;BME280;21556;55.782;37.528;2023-12-20T01:30:40;97910.41;;;6.61;100.00
35435;BME280;21556;55.782;37.528;2023-12-20T01:33:07;97913.06;;;6.71;100.00
35435;BME280;21556;55.782;37.528;2023-12-20T01:35:33;97912.16;;;6.59;100.00
35435;BME280;21556;55.782;37.528;2023-12-20T01:38:02;97903.53;;;6.81;100.00
35435;BME280;21556;55.782;37.528;2023-12-20T01:40:30;97905.19;;;6.55;100.00
35435;BME280;21556;55.782;37.528;2023-12-20T01:43:07;97902.59;;;6.59;100.00
35435;BME280;21556;55.782;37.528;2023-12-20T01:45:34;97893.94;;;6.71;100.00
35435;BME280;21556;55.782;37.528;2023-12-20T01:48:01;97890.44;;;6.64;100.00
35435;BME280;21556;55.782;37.528;2023-12-20T01:50:29;97888.72;;;6.66;100.00
35435;BME280;21556;55.782;37.528;2023-12-20T01:52:58;97882.59;;;6.52;100.00
35435;BME280;21556;55.782;37.528;2023-12-20T01:55:27;97886.06;;;6.43;100.00
35435;BME280;21556;55.782;37.528;2023-12-20T01:57:58;97893.13;;;6.77;100.00
35435;BME280;21556;55.782;37.528;2023-12-20T02:00:26;97886.09;;;6.57;100.00
35435;BME280;21556;55.782;37.528;2023-12-20T02:02:54;97889.59;;;6.64;100.00
35435;BME280;21556;55.782;37.528;2023-12-20T02:05:23;97893.06;;;6.63;100.00
35435;BME280;21556;55.782;37.528;2023-12-20T02:07:51;97897.38;;;6.51;100.00
35435;BME280;21556;55.782;37.528;2023-12-20T02:10:17;97883.47;;;6.53;100.00
35435;BME280;21556;55.782;37.528;2023-12-20T02:12:45;97887.81;;;6.52;100.00
35435;BME280;21556;55.782;37.528;2023-12-20T02:15:14;97883.47;;;6.57;100.00
35435;BME280;21556;55.782;37.528;2023-12-20T02:17:41;97864.25;;;6.24;100.00
35435;BME280;21556;55.782;37.528;2023-12-20T02:20:07;97854.84;;;6.71;100.00
35435;BME280;21556;55.782;37.528;2023-12-20T02:22:34;97860.03;;;6.51;100.00
35435;BME280;21556;55.782;37.528;2023-12-20T02:25:00;97850.50;;;6.67;100.00
35435;BME280;21556;55.782;37.528;2023-12-20T02:27:34;97869.66;;;6.84;100.00
35435;BME280;21556;55.782;37.528;2023-12-20T02:30:03;97868.75;;;6.71;100.00
35435;BME280;21556;55.782;37.528;2023-12-20T02:32:29;97866.13;;;6.58;100.00
35435;BME280;21556;55.782;37.528;2023-12-20T02:34:58;97874.81;;;6.67;100.00
35435;BME280;21556;55.782;37.528;2023-12-20T02:37:29;97873.91;;;6.47;100.00
35435;BME280;21556;55.782;37.528;2023-12-20T02:39:55;97867.94;;;6.83;100.00
35435;BME280;21556;55.782;37.528;2023-12-20T02:42:24;97875.72;;;6.65;100.00
35435;BME280;21556;55.782;37.528;2023-12-20T02:44:53;97874.81;;;6.60;100.00
35435;BME280;21556;55.782;37.528;2023-12-20T02:47:19;97868.63;;;6.25;100.00
35435;BME280;21556;55.782;37.528;2023-12-20T02:49:45;97879.16;;;6.55;100.00
35435;BME280;21556;55.782;37.528;2023-12-20T02:52:14;97874.81;;;6.63;100.00
35435;BME280;21556;55.782;37.528;2023-12-20T02:54:41;97883.34;;;6.17;100.00
35435;BME280;21556;55.782;37.528;2023-12-20T02:57:10;97879.09;;;6.42;100.00
35435;BME280;21556;55.782;37.528;2023-12-20T02:59:36;97876.53;;;6.56;100.00
35435;BME280;21556;55.782;37.528;2023-12-20T03:02:02;97866.94;;;6.44;100.00
35435;BME280;21556;55.782;37.528;2023-12-20T03:04:29;97864.22;;;6.14;100.00
35435;BME280;21556;55.782;37.528;2023-12-20T03:06:57;97863.50;;;6.51;100.00
35435;BME280;21556;55.782;37.528;2023-12-20T03:09:23;97857.50;;;6.83;100.00
35435;BME280;21556;55.782;37.528;2023-12-20T03:11:50;97846.19;;;6.81;100.00
35435;BME280;21556;55.782;37.528;2023-12-20T03:14:22;97848.78;;;6.75;100.00
35435;BME280;21556;55.782;37.528;2023-12-20T03:16:54;97866.91;;;6.38;100.00
35435;BME280;21556;55.782;37.528;2023-12-20T03:19:21;97873.09;;;6.62;100.00
35435;BME280;21556;55.782;37.528;2023-12-20T03:24:27;97874.75;;;6.41;100.00
35435;BME280;21556;55.782;37.528;2023-12-20T03:26:56;97867.94;;;6.80;100.00
35435;BME280;21556;55.782;37.528;2023-12-20T03:29:28;97859.19;;;6.63;100.00
35435;BME280;21556;55.782;37.528;2023-12-20T03:31:57;97865.19;;;6.37;100.00
35435;BME280;21556;55.782;37.528;2023-12-20T03:34:26;97864.34;;;6.44;100.00
35435;BME280;21556;55.782;37.528;2023-12-20T03:36:56;97857.47;;;6.62;100.00
35435;BME280;21556;55.782;37.528;2023-12-20T03:39:26;97853.75;;;6.06;100.00
35435;BME280;21556;55.782;37.528;2023-12-20T03:41:56;97866.19;;;6.90;100.00
35435;BME280;21556;55.782;37.528;2023-12-20T03:44:22;97854.00;;;6.75;100.00
35435;BME280;21556;55.782;37.528;2023-12-20T03:46:48;97863.63;;;7.17;100.00
35435;BME280;21556;55.782;37.528;2023-12-20T03:49:15;97879.28;;;7.17;100.00
35435;BME280;21556;55.782;37.528;2023-12-20T03:51:41;97868.00;;;7.15;100.00
35435;BME280;21556;55.782;37.528;2023-12-20T03:54:30;97874.94;;;7.09;100.00
35435;BME280;21556;55.782;37.528;2023-12-20T03:56:58;97879.22;;;6.93;100.00
35435;BME280;21556;55.782;37.528;2023-12-20T03:59:27;97881.91;;;7.36;100.00
35435;BME280;21556;55.782;37.528;2023-12-20T04:01:53;97864.44;;;6.81;100.00
35435;BME280;21556;55.782;37.528;2023-12-20T04:04:22;97871.47;;;7.19;100.00
35435;BME280;21556;55.782;37.528;2023-12-20T04:06:51;97878.38;;;6.92;100.00
35435;BME280;21556;55.782;37.528;2023-12-20T04:09:17;97879.28;;;7.17;100.00
35435;BME280;21556;55.782;37.528;2023-12-20T04:11:43;97874.88;;;6.81;100.00
35435;BME280;21556;55.782;37.528;2023-12-20T04:14:09;97880.16;;;7.19;100.00
35435;BME280;21556;55.782;37.528;2023-12-20T04:16:38;97875.81;;;7.35;100.00
35435;BME280;21556;55.782;37.528;2023-12-20T04:19:09;97876.69;;;7.19;100.00
35435;BME280;21556;55.782;37.528;2023-12-20T04:21:35;97876.41;;;6.21;100.00
35435;BME280;21556;55.782;37.528;2023-12-20T04:24:01;97884.38;;;6.64;100.00
35435;BME280;21556;55.782;37.528;2023-12-20T04:26:28;97892.16;;;6.61;100.00
35435;BME280;21556;55.782;37.528;2023-12-20T04:28:58;97898.09;;;6.24;100.00
35435;BME280;21556;55.782;37.528;2023-12-20T04:31:29;97899.91;;;6.36;100.00
35435;BME280;21556;55.782;37.528;2023-12-20T04:33:55;97899.78;;;6.13;100.00
35435;BME280;21556;55.782;37.528;2023-12-20T04:36:24;97892.81;;;6.03;100.00
35435;BME280;21556;55.782;37.528;2023-12-20T04:39:08;97896.31;;;6.07;100.00
35435;BME280;21556;55.782;37.528;2023-12-20T04:42:00;97895.44;;;6.11;100.00
35435;BME280;21556;55.782;37.528;2023-12-20T04:44:31;97889.56;;;6.56;100.00
35435;BME280;21556;55.782;37.528;2023-12-20T04:47:06;97892.09;;;6.42;100.00
35435;BME280;21556;55.782;37.528;2023-12-20T04:49:32;97905.94;;;6.21;100.00
35435;BME280;21556;55.782;37.528;2023-12-20T04:52:01;97893.84;;;6.40;100.00
35435;BME280;21556;55.782;37.528;2023-12-20T04:54:27;97894.78;;;6.56;100.00
35435;BME280;21556;55.782;37.528;2023-12-20T04:56:56;97897.31;;;6.36;100.00
35435;BME280;21556;55.782;37.528;2023-12-20T04:59:22;97903.91;;;5.84;100.00
35435;BME280;21556;55.782;37.528;2023-12-20T05:01:48;97889.34;;;6.09;100.00
35435;BME280;21556;55.782;37.528;2023-12-20T05:04:14;97893.47;;;5.77;100.00
35435;BME280;21556;55.782;37.528;2023-12-20T05:06:40;97901.34;;;5.90;100.00
35435;BME280;21556;55.782;37.528;2023-12-20T05:09:07;97888.59;;;6.34;100.00
35435;BME280;21556;55.782;37.528;2023-12-20T05:11:35;97891.34;;;6.66;100.00
35435;BME280;21556;55.782;37.528;2023-12-20T05:14:10;97898.13;;;6.21;100.00
35435;BME280;21556;55.782;37.528;2023-12-20T05:16:36;97895.63;;;6.57;100.00
35435;BME280;21556;55.782;37.528;2023-12-20T05:19:05;97895.69;;;6.73;100.00
35435;BME280;21556;55.782;37.528;2023-12-20T05:21:32;97897.41;;;6.62;100.00
35435;BME280;21556;55.782;37.528;2023-12-20T05:23:59;97899.09;;;6.51;100.00
35435;BME280;21556;55.782;37.528;2023-12-20T05:26:26;97901.72;;;6.57;100.00
35435;BME280;21556;55.782;37.528;2023-12-20T05:28:52;97898.22;;;6.52;100.00
35435;BME280;21556;55.782;37.528;2023-12-20T05:31:19;97905.13;;;6.38;100.00
35435;BME280;21556;55.782;37.528;2023-12-20T05:33:48;97901.72;;;6.54;100.00
35435;BME280;21556;55.782;37.528;2023-12-20T05:36:14;97905.28;;;6.76;100.00
35435;BME280;21556;55.782;37.528;2023-12-20T05:38:42;97921.69;;;6.52;100.00
35435;BME280;21556;55.782;37.528;2023-12-20T05:41:10;97927.75;;;6.51;100.00
35435;BME280;21556;55.782;37.528;2023-12-20T05:43:37;97916.50;;;6.54;100.00
35435;BME280;21556;55.782;37.528;2023-12-20T05:46:05;97909.59;;;6.74;100.00
35435;BME280;21556;55.782;37.528;2023-12-20T05:48:34;97925.16;;;6.57;100.00
35435;BME280;21556;55.782;37.528;2023-12-20T05:51:03;97925.19;;;6.54;100.00
35435;BME280;21556;55.782;37.528;2023-12-20T05:53:29;97916.28;;;6.17;100.00
35435;BME280;21556;55.782;37.528;2023-12-20T05:55:56;97924.22;;;6.38;100.00
35435;BME280;21556;55.782;37.528;2023-12-20T05:58:22;97924.06;;;6.09;100.00
35435;BME280;21556;55.782;37.528;2023-12-20T06:00:48;97920.34;;;5.76;100.00
35435;BME280;21556;55.782;37.528;2023-12-20T06:03:24;97914.38;;;5.88;100.00
35435;BME280;21556;55.782;37.528;2023-12-20T06:05:51;97925.22;;;6.68;100.00
35435;BME280;21556;55.782;37.528;2023-12-20T06:08:36;97918.28;;;6.73;100.00
35435;BME280;21556;55.782;37.528;2023-12-20T06:11:04;97918.38;;;6.94;100.00
35435;BME280;21556;55.782;37.528;2023-12-20T06:13:34;97925.25;;;6.72;100.00
35435;BME280;21556;55.782;37.528;2023-12-20T06:16:00;97933.91;;;6.65;100.00
35435;BME280;21556;55.782;37.528;2023-12-20T06:18:28;97933.06;;;6.72;100.00
35435;BME280;21556;55.782;37.528;2023-12-20T06:20:54;97933.03;;;6.66;100.00
35435;BME280;21556;55.782;37.528;2023-12-20T06:23:26;97934.81;;;6.72;100.00
35435;BME280;21556;55.782;37.528;2023-12-20T06:26:29;97941.78;;;6.81;100.00
35435;BME280;21556;55.782;37.528;2023-12-20T06:28:55;97934.81;;;6.80;100.00
35435;BME280;21556;55.782;37.528;2023-12-20T06:31:24;97944.41;;;6.91;100.00
35435;BME280;21556;55.782;37.528;2023-12-20T06:33:50;97947.66;;;6.38;100.00
35435;BME280;21556;55.782;37.528;2023-12-20T06:36:23;97938.31;;;6.85;100.00
35435;BME280;21556;55.782;37.528;2023-12-20T06:38:57;97933.97;;;6.93;100.00
35435;BME280;21556;55.782;37.528;2023-12-20T06:41:24;97947.00;;;6.90;100.00
35435;BME280;21556;55.782;37.528;2023-12-20T06:43:50;97940.06;;;6.83;100.00
35435;BME280;21556;55.782;37.528;2023-12-20T06:46:24;97934.06;;;7.16;100.00
35435;BME280;21556;55.782;37.528;2023-12-20T06:48:51;97930.44;;;6.74;100.00
35435;BME280;21556;55.782;37.528;2023-12-20T06:51:19;97935.69;;;6.80;100.00
35435;BME280;21556;55.782;37.528;2023-12-20T06:53:46;97933.94;;;6.82;100.00
35435;BME280;21556;55.782;37.528;2023-12-20T06:56:12;97927.94;;;7.02;100.00
35435;BME280;21556;55.782;37.528;2023-12-20T06:58:39;97936.63;;;6.97;100.00
35435;BME280;21556;55.782;37.528;2023-12-20T07:01:05;97927.00;;;6.84;100.00
35435;BME280;21556;55.782;37.528;2023-12-20T07:03:31;97928.75;;;6.84;100.00
35435;BME280;21556;55.782;37.528;2023-12-20T07:05:58;97939.19;;;6.88;100.00
35435;BME280;21556;55.782;37.528;2023-12-20T07:08:24;97933.81;;;6.44;100.00
35435;BME280;21556;55.782;37.528;2023-12-20T07:10:50;97934.88;;;6.90;100.00
35435;BME280;21556;55.782;37.528;2023-12-20T07:13:18;97933.97;;;6.79;100.00
35435;BME280;21556;55.782;37.528;2023-12-20T07:15:44;97927.88;;;6.89;100.00
35435;BME280;21556;55.782;37.528;2023-12-20T07:18:17;97940.91;;;6.89;100.00
35435;BME280;21556;55.782;37.528;2023-12-20T07:20:44;97943.50;;;6.75;100.00
35435;BME280;21556;55.782;37.528;2023-12-20T07:23:16;97932.25;;;6.92;100.00
35435;BME280;21556;55.782;37.528;2023-12-20T07:25:42;97931.22;;;6.47;100.00
35435;BME280;21556;55.782;37.528;2023-12-20T07:28:16;97939.09;;;6.67;100.00
35435;BME280;21556;55.782;37.528;2023-12-20T07:34:58;97949.69;;;7.13;100.00
35435;BME280;21556;55.782;37.528;2023-12-20T07:37:51;97957.56;;;7.31;100.00
35435;BME280;21556;55.782;37.528;2023-12-20T07:44:12;97971.41;;;7.01;100.00
35435;BME280;21556;55.782;37.528;2023-12-20T07:52:36;97966.13;;;6.84;100.00
35435;BME280;21556;55.782;37.528;2023-12-20T07:55:19;97979.25;;;7.26;100.00
35435;BME280;21556;55.782;37.528;2023-12-20T07:57:48;97976.69;;;7.36;100.00
35435;BME280;21556;55.782;37.528;2023-12-20T08:00:20;97976.63;;;7.18;100.00
35435;BME280;21556;55.782;37.528;2023-12-20T08:02:46;97979.22;;;6.98;100.00
35435;BME280;21556;55.782;37.528;2023-12-20T08:05:24;97974.81;;;6.92;100.00
35435;BME280;21556;55.782;37.528;2023-12-20T08:07:53;97974.03;;;7.18;100.00
35435;BME280;21556;55.782;37.528;2023-12-20T08:10:24;97980.09;;;7.06;100.00
35435;BME280;21556;55.782;37.528;2023-12-20T08:13:05;97988.59;;;6.64;100.00
35435;BME280;21556;55.782;37.528;2023-12-20T08:15:39;97980.00;;;6.77;100.00
35435;BME280;21556;55.782;37.528;2023-12-20T08:18:10;97988.78;;;7.07;100.00
35435;BME280;21556;55.782;37.528;2023-12-20T08:20:36;97974.00;;;7.07;100.00
35435;BME280;21556;55.782;37.528;2023-12-20T08:23:16;97981.00;;;7.13;100.00
35435;BME280;21556;55.782;37.528;2023-12-20T08:25:52;97985.31;;;7.11;100.00
35435;BME280;21556;55.782;37.528;2023-12-20T08:28:18;97985.31;;;7.05;100.00
35435;BME280;21556;55.782;37.528;2023-12-20T08:30:50;97973.06;;;6.84;100.00
35435;BME280;21556;55.782;37.528;2023-12-20T08:33:39;97982.72;;;7.12;100.00
35435;BME280;21556;55.782;37.528;2023-12-20T08:36:05;97973.13;;;7.02;100.00
35435;BME280;21556;55.782;37.528;2023-12-20T08:38:38;97981.84;;;7.09;100.00
35435;BME280;21556;55.782;37.528;2023-12-20T08:41:04;97960.16;;;7.33;100.00
35435;BME280;21556;55.782;37.528;2023-12-20T08:43:36;97970.56;;;7.17;100.00
35435;BME280;21556;55.782;37.528;2023-12-20T08:46:03;97960.13;;;7.30;100.00
35435;BME280;21556;55.782;37.528;2023-12-20T08:48:29;97971.41;;;7.13;100.00
35435;BME280;21556;55.782;37.528;2023-12-20T08:50:55;97966.19;;;7.01;100.00
35435;BME280;21556;55.782;37.528;2023-12-20T08:53:21;97971.38;;;7.04;100.00
35435;BME280;21556;55.782;37.528;2023-12-20T08:55:55;97967.88;;;6.87;100.00
35435;BME280;21556;55.782;37.528;2023-12-20T08:58:31;97968.81;;;7.09;100.00
35435;BME280;21556;55.782;37.528;2023-12-20T09:00:57;97967.94;;;7.10;100.00
35435;BME280;21556;55.782;37.528;2023-12-20T09:03:26;97964.41;;;6.94;100.00
35435;BME280;21556;55.782;37.528;2023-12-20T09:05:58;97962.75;;;7.16;100.00
35435;BME280;21556;55.782;37.528;2023-12-20T09:08:25;97964.47;;;7.21;100.00
35435;BME280;21556;55.782;37.528;2023-12-20T09:10:51;97964.47;;;7.17;100.00
35435;BME280;21556;55.782;37.528;2023-12-20T09:13:17;97961.88;;;7.23;100.00
35435;BME280;21556;55.782;37.528;2023-12-20T09:15:43;97951.44;;;7.26;100.00
35435;BME280;21556;55.782;37.528;2023-12-20T09:18:10;97959.19;;;6.86;100.00
35435;BME280;21556;55.782;37.528;2023-12-20T09:20:36;97957.50;;;7.10;100.00
35435;BME280;21556;55.782;37.528;2023-12-20T09:23:02;97954.00;;;6.98;100.00
35435;BME280;21556;55.782;37.528;2023-12-20T09:25:29;97957.47;;;6.94;100.00
35435;BME280;21556;55.782;37.528;2023-12-20T09:27:55;97953.19;;;7.29;100.00
35435;BME280;21556;55.782;37.528;2023-12-20T09:30:22;97954.03;;;7.26;100.00
35435;BME280;21556;55.782;37.528;2023-12-20T09:32:54;97954.91;;;7.22;100.00
35435;BME280;21556;55.782;37.528;2023-12-20T09:35:20;97954.94;;;7.43;100.00
35435;BME280;21556;55.782;37.528;2023-12-20T09:37:46;97960.13;;;7.13;100.00
35435;BME280;21556;55.782;37.528;2023-12-20T09:40:13;97966.22;;;7.26;100.00
35435;BME280;21556;55.782;37.528;2023-12-20T09:42:55;97965.38;;;7.28;100.00
35435;BME280;21556;55.782;37.528;2023-12-20T09:45:33;97951.50;;;7.52;100.00
35435;BME280;21556;55.782;37.528;2023-12-20T09:48:00;97947.13;;;7.69;100.00
35435;BME280;21556;55.782;37.528;2023-12-20T09:50:27;97957.59;;;7.53;100.00
35435;BME280;21556;55.782;37.528;2023-12-20T09:53:03;97957.59;;;7.48;100.00
35435;BME280;21556;55.782;37.528;2023-12-20T09:55:33;97960.13;;;7.14;100.00
35435;BME280;21556;55.782;37.528;2023-12-20T09:58:02;97961.94;;;7.49;100.00
35435;BME280;21556;55.782;37.528;2023-12-20T10:00:29;97954.03;;;7.18;100.00
35435;BME280;21556;55.782;37.528;2023-12-20T10:03:06;97961.91;;;7.51;100.00
35435;BME280;21556;55.782;37.528;2023-12-20T10:05:35;97972.25;;;7.03;100.00
35435;BME280;21556;55.782;37.528;2023-12-20T10:08:07;97967.09;;;7.24;100.00
35435;BME280;21556;55.782;37.528;2023-12-20T10:10:33;97966.19;;;7.15;100.00
35435;BME280;21556;55.782;37.528;2023-12-20T10:13:12;97961.88;;;7.32;100.00
35435;BME280;21556;55.782;37.528;2023-12-20T10:18:42;97964.50;;;7.37;100.00
35435;BME280;21556;55.782;37.528;2023-12-20T10:21:15;97969.66;;;7.05;100.00
35435;BME280;21556;55.782;37.528;2023-12-20T10:23:45;97975.81;;;7.28;100.00
35435;BME280;21556;55.782;37.528;2023-12-20T10:26:28;97962.78;;;7.36;100.00
35435;BME280;21556;55.782;37.528;2023-12-20T10:29:00;97955.84;;;7.56;100.00
35435;BME280;21556;55.782;37.528;2023-12-20T10:31:31;97962.72;;;7.22;100.00
35435;BME280;21556;55.782;37.528;2023-12-20T10:33:59;97964.53;;;7.34;100.00
35435;BME280;21556;55.782;37.528;2023-12-20T10:36:32;97967.91;;;6.99;100.00
35435;BME280;21556;55.782;37.528;2023-12-20T10:38:59;97962.78;;;7.36;100.00
35435;BME280;21556;55.782;37.528;2023-12-20T10:41:28;97967.94;;;7.13;100.00
35435;BME280;21556;55.782;37.528;2023-12-20T10:43:59;97969.72;;;7.28;100.00
35435;BME280;21556;55.782;37.528;2023-12-20T10:46:28;97977.53;;;7.20;100.00
35435;BME280;21556;55.782;37.528;2023-12-20T10:48:58;97974.06;;;7.32;100.00
35435;BME280;21556;55.782;37.528;2023-12-20T10:51:25;97974.03;;;7.26;100.00
35435;BME280;21556;55.782;37.528;2023-12-20T10:53:59;97967.03;;;7.00;100.00
35435;BME280;21556;55.782;37.528;2023-12-20T11:03:35;97976.69;;;7.38;100.00
35435;BME280;21556;55.782;37.528;2023-12-20T11:06:36;97965.41;;;7.60;100.00
35435;BME280;21556;55.782;37.528;2023-12-20T11:14:46;97955.84;;;7.82;100.00
35435;BME280;21556;55.782;37.528;2023-12-20T11:17:13;97955.84;;;7.64;100.00
35435;BME280;21556;55.782;37.528;2023-12-20T11:22:26;97953.19;;;7.44;100.00
35435;BME280;21556;55.782;37.528;2023-12-20T11:25:06;97948.00;;;7.84;100.00
35435;BME280;21556;55.782;37.528;2023-12-20T11:27:34;97948.00;;;7.73;100.00
35435;BME280;21556;55.782;37.528;2023-12-20T11:30:02;97951.47;;;7.80;100.00
35435;BME280;21556;55.782;37.528;2023-12-20T11:32:34;97942.81;;;7.52;100.00
35435;BME280;21556;55.782;37.528;2023-12-20T11:37:49;97951.44;;;7.12;100.00
35435;BME280;21556;55.782;37.528;2023-12-20T11:44:59;97957.59;;;7.56;100.00
35435;BME280;21556;55.782;37.528;2023-12-20T11:52:49;97960.19;;;7.56;100.00
35435;BME280;21556;55.782;37.528;2023-12-20T12:08:25;97966.28;;;7.48;100.00
35435;BME280;21556;55.782;37.528;2023-12-20T12:12:13;97974.97;;;7.66;100.00
35435;BME280;21556;55.782;37.528;2023-12-20T12:15:11;97976.59;;;7.04;100.00
35435;BME280;21556;55.782;37.528;2023-12-20T12:18:17;97975.78;;;7.30;100.00
35435;BME280;21556;55.782;37.528;2023-12-20T12:20:44;97981.91;;;7.36;100.00
35435;BME280;21556;55.782;37.528;2023-12-20T12:23:10;97979.13;;;6.81;100.00
35435;BME280;21556;55.782;37.528;2023-12-20T12:25:36;97977.53;;;7.20;100.00
35435;BME280;21556;55.782;37.528;2023-12-20T12:28:05;97983.41;;;6.62;100.00
35435;BME280;21556;55.782;37.528;2023-12-20T12:30:31;97980.03;;;6.83;100.00
35435;BME280;21556;55.782;37.528;2023-12-20T12:32:57;97990.50;;;7.03;100.00
35435;BME280;21556;55.782;37.528;2023-12-20T12:35:24;97994.84;;;6.99;100.00
35435;BME280;21556;55.782;37.528;2023-12-20T12:37:51;97988.72;;;6.87;100.00
35435;BME280;21556;55.782;37.528;2023-12-20T12:40:17;98003.47;;;6.80;100.00
35435;BME280;21556;55.782;37.528;2023-12-20T12:42:46;98010.53;;;7.09;100.00
35435;BME280;21556;55.782;37.528;2023-12-20T12:45:13;98017.34;;;6.76;100.00
35435;BME280;21556;55.782;37.528;2023-12-20T12:47:48;98020.06;;;7.04;100.00
35435;BME280;21556;55.782;37.528;2023-12-20T12:50:14;98014.84;;;6.99;100.00
35435;BME280;21556;55.782;37.528;2023-12-20T12:52:40;98016.28;;;6.45;100.00
35435;BME280;21556;55.782;37.528;2023-12-20T12:55:07;98020.09;;;7.10;100.00
35435;BME280;21556;55.782;37.528;2023-12-20T12:57:34;98028.75;;;6.98;100.00
35435;BME280;21556;55.782;37.528;2023-12-20T13:00:02;98031.41;;;7.15;100.00
35435;BME280;21556;55.782;37.528;2023-12-20T13:02:29;98017.50;;;7.08;100.00
35435;BME280;21556;55.782;37.528;2023-12-20T13:04:55;98028.44;;;6.46;100.00
35435;BME280;21556;55.782;37.528;2023-12-20T13:07:21;98017.34;;;6.76;100.00
35435;BME280;21556;55.782;37.528;2023-12-20T13:09:47;98022.53;;;6.73;100.00
35435;BME280;21556;55.782;37.528;2023-12-20T13:12:13;98032.06;;;6.71;100.00
35435;BME280;21556;55.782;37.528;2023-12-20T13:14:40;98038.06;;;6.50;100.00
35435;BME280;21556;55.782;37.528;2023-12-20T13:17:06;98032.09;;;6.74;100.00
35435;BME280;21556;55.782;37.528;2023-12-20T13:19:35;98024.34;;;6.89;100.00
35435;BME280;21556;55.782;37.528;2023-12-20T13:22:01;98013.88;;;6.79;100.00
35435;BME280;21556;55.782;37.528;2023-12-20T13:27:30;98023.34;;;6.61;100.00
35435;BME280;21556;55.782;37.528;2023-12-20T13:30:04;98022.53;;;6.73;100.00
35435;BME280;21556;55.782;37.528;2023-12-20T13:32:31;98033.78;;;6.64;100.00
35435;BME280;21556;55.782;37.528;2023-12-20T13:34:58;98039.69;;;6.33;100.00
35435;BME280;21556;55.782;37.528;2023-12-20T13:37:31;98031.16;;;6.63;100.00
35435;BME280;21556;55.782;37.528;2023-12-20T13:39:58;98023.34;;;6.64;100.00
35435;BME280;21556;55.782;37.528;2023-12-20T13:42:29;98016.47;;;6.74;100.00
35435;BME280;21556;55.782;37.528;2023-12-20T13:45:02;98020.81;;;6.72;100.00
35435;BME280;21556;55.782;37.528;2023-12-20T13:47:31;98024.88;;;6.32;100.00
35435;BME280;21556;55.782;37.528;2023-12-20T13:49:58;98023.44;;;6.80;100.00
35435;BME280;21556;55.782;37.528;2023-12-20T13:52:26;98021.72;;;6.83;100.00
35435;BME280;21556;55.782;37.528;2023-12-20T13:54:53;98026.66;;;6.39;100.00
35435;BME280;21556;55.782;37.528;2023-12-20T13:57:19;98023.13;;;6.26;100.00
35435;BME280;21556;55.782;37.528;2023-12-20T13:59:48;98023.22;;;6.41;100.00
35435;BME280;21556;55.782;37.528;2023-12-20T14:02:15;98031.97;;;6.51;100.00
35435;BME280;21556;55.782;37.528;2023-12-20T14:04:47;98037.88;;;6.25;100.00
35435;BME280;21556;55.782;37.528;2023-12-20T14:07:13;98037.00;;;6.22;100.00